aviador You're here:

OKBK Decoded Metar

KUWAIT in KUWAIT
Report Time2017-08-18 16:00:00
UTC Time2017-08-18 16:27:03
Flight Rules mvfr MVFR
Wind150° at 05 kt
W.Decomp.*RWY 15: 5.0 kt HW 0.3 kt LCW
W.Rank150° ranks 12
Current wind is below 150° avg. (7.7)
Visibility7000 m
Phenomena:N/A
Clouds:N/A
Expected CloudBase > 6,400 ft AGL from Temp-Dew spread
CeilingNone
Temp40°C (ISA +25)
Dew Point24°C (40% RH)
Heat Index48.3°C
QNH0999 hPa
Density Alt3,888 ft
Elevation180 ft
Report Wrong Elevation
Raw Report
METAR OKBK 181600Z 15005KT 7000 SKC 40/24 Q0999 NOSIG=

Extra information for OKBK:More info

Metar Taf Metar & Taf Last 4 Metars F.Rules Stats Wind Profile Meteogram Temp Stats Airport Information Weather charts Add Link Nearby VenuesMetar ALERT Operation Metar Decoded Social comments